Time;durP1;ratioP1;P1;durP2;ratioP2;P2;SDS_P1;SDS_P2;PMS_P1;PMS_P2;Temp;Humidity;BMP_temperature;BMP_pressure;BME280_temperature;BME280_humidity;BME280_pressure;Samples;Min_cycle;Max_cycle;Signal;HPM_P1;HPM_P2
2021/04/27 00:01:28;;;;;;;21.80;20.60;;;;;;;;;;5095917;28;20448;-81
2021/04/27 00:03:54;;;;;;;22.52;21.23;;;;;;;;;;5095895;28;20189;-81
2021/04/27 00:06:22;;;;;;;22.00;20.83;;;;;;;;;;5095922;28;20643;-81
2021/04/27 00:08:49;;;;;;;21.90;20.70;;;;;;;;;;5095673;28;20353;-81
2021/04/27 00:11:17;;;;;;;22.40;20.90;;;;;;;;;;5094659;28;20436;-81
2021/04/27 00:13:44;;;;;;;22.63;21.23;;;;;;;;;;5095694;28;20191;-81
2021/04/27 00:16:11;;;;;;;22.03;20.83;;;;;;;;;;5095653;28;20812;-81
2021/04/27 00:18:38;;;;;;;21.90;20.70;;;;;;;;;;5095705;28;20411;-81
2021/04/27 00:21:05;;;;;;;21.20;20.10;;;;;;;;;;5094327;28;20442;-81
2021/04/27 00:23:33;;;;;;;22.27;20.87;;;;;;;;;;5095077;28;20999;-81
2021/04/27 00:26:00;;;;;;;22.08;20.70;;;;;;;;;;5095190;28;20416;-81
2021/04/27 00:28:27;;;;;;;22.38;20.83;;;;;;;;;;5095506;28;20214;-82
2021/04/27 00:30:54;;;;;;;21.83;20.57;;;;;;;;;;5095106;28;20224;-81
2021/04/27 00:33:21;;;;;;;21.85;20.60;;;;;;;;;;5095152;28;20441;-81
2021/04/27 00:35:48;;;;;;;21.67;20.48;;;;;;;;;;5095079;28;20197;-81
2021/04/27 00:38:15;;;;;;;22.70;21.30;;;;;;;;;;5095333;28;20187;-81
2021/04/27 00:40:43;;;;;;;21.50;20.30;;;;;;;;;;5094450;28;20213;-81
2021/04/27 00:43:10;;;;;;;22.17;20.98;;;;;;;;;;5095262;28;20910;-81
2021/04/27 00:45:37;;;;;;;22.58;21.00;;;;;;;;;;5094731;28;20209;-81
2021/04/27 00:48:04;;;;;;;21.40;20.30;;;;;;;;;;5094795;28;20737;-81
2021/04/27 00:50:32;;;;;;;21.90;20.70;;;;;;;;;;5094735;28;20225;-81
2021/04/27 00:52:59;;;;;;;22.20;20.90;;;;;;;;;;5095107;28;20234;-81
2021/04/27 00:55:27;;;;;;;22.80;21.50;;;;;;;;;;5095501;28;20218;-81
2021/04/27 00:57:55;;;;;;;21.50;20.30;;;;;;;;;;5094958;28;20182;-81
2021/04/27 01:00:24;;;;;;;22.10;20.70;;;;;;;;;;5095070;28;20247;-81
2021/04/27 01:02:51;;;;;;;21.77;20.58;;;;;;;;;;5093512;28;20473;-80
2021/04/27 01:05:20;;;;;;;21.77;20.57;;;;;;;;;;5094630;28;20705;-81
2021/04/27 01:07:50;;;;;;;22.65;21.20;;;;;;;;;;5094758;28;20447;-81
2021/04/27 01:10:19;;;;;;;22.45;21.15;;;;;;;;;;5095399;28;20234;-81
2021/04/27 01:12:48;;;;;;;22.73;21.42;;;;;;;;;;5094388;28;20204;-81
2021/04/27 01:15:19;;;;;;;22.43;21.17;;;;;;;;;;5094385;28;20190;-82
2021/04/27 01:17:46;;;;;;;22.30;21.10;;;;;;;;;;5094830;28;20436;-81
2021/04/27 01:20:16;;;;;;;22.25;20.85;;;;;;;;;;5094683;28;20918;-81
2021/04/27 01:22:48;;;;;;;22.35;21.10;;;;;;;;;;5094567;28;20189;-81
2021/04/27 01:25:16;;;;;;;22.00;20.73;;;;;;;;;;5094184;28;20233;-81
2021/04/27 01:27:44;;;;;;;21.15;19.95;;;;;;;;;;5094608;28;20194;-82
2021/04/27 01:30:11;;;;;;;22.10;20.80;;;;;;;;;;5094194;28;20215;-81
2021/04/27 01:32:38;;;;;;;22.55;20.90;;;;;;;;;;5094109;28;20263;-81
2021/04/27 01:35:06;;;;;;;23.02;21.58;;;;;;;;;;5094354;28;20187;-82
2021/04/27 01:37:33;;;;;;;21.83;20.63;;;;;;;;;;5094404;28;20192;-81
2021/04/27 01:40:00;;;;;;;21.42;20.33;;;;;;;;;;5094416;28;20201;-81
2021/04/27 01:42:27;;;;;;;21.50;20.30;;;;;;;;;;5092950;28;20196;-81
2021/04/27 01:44:55;;;;;;;22.23;20.98;;;;;;;;;;5094336;28;20417;-81
2021/04/27 01:47:22;;;;;;;21.83;20.42;;;;;;;;;;5093971;28;20200;-81
2021/04/27 01:49:49;;;;;;;21.87;20.63;;;;;;;;;;5094147;28;20228;-82
2021/04/27 01:52:17;;;;;;;21.83;20.52;;;;;;;;;;5092887;28;20427;-82
2021/04/27 01:54:44;;;;;;;21.25;20.13;;;;;;;;;;5093834;28;20221;-82
2021/04/27 01:57:11;;;;;;;22.05;20.92;;;;;;;;;;5093993;28;20547;-81
2021/04/27 01:59:38;;;;;;;22.23;21.02;;;;;;;;;;5094215;28;20189;-81
2021/04/27 02:02:06;;;;;;;22.30;20.80;;;;;;;;;;5094047;28;20190;-81
2021/04/27 02:04:33;;;;;;;22.05;20.85;;;;;;;;;;5092825;28;20650;-81
2021/04/27 02:07:00;;;;;;;22.13;20.83;;;;;;;;;;5093848;28;20194;-82
2021/04/27 02:09:27;;;;;;;21.58;20.38;;;;;;;;;;5094603;28;20212;-82
2021/04/27 02:11:55;;;;;;;21.17;20.08;;;;;;;;;;5092701;28;20208;-81
2021/04/27 02:14:23;;;;;;;21.75;20.40;;;;;;;;;;5095547;28;20571;-81
2021/04/27 02:16:53;;;;;;;22.95;21.58;;;;;;;;;;5096759;28;20208;-81
2021/04/27 02:19:23;;;;;;;21.98;20.75;;;;;;;;;;5097873;28;20257;-81
2021/04/27 02:21:52;;;;;;;22.15;20.90;;;;;;;;;;5097970;28;20194;-81
2021/04/27 02:24:19;;;;;;;21.48;20.27;;;;;;;;;;5097666;28;20239;-80
2021/04/27 02:26:46;;;;;;;21.20;20.00;;;;;;;;;;5097579;28;20634;-81
2021/04/27 02:29:13;;;;;;;21.63;20.42;;;;;;;;;;5097699;28;20217;-80
2021/04/27 02:31:40;;;;;;;21.75;20.35;;;;;;;;;;5097273;28;20238;-81
2021/04/27 02:34:07;;;;;;;21.70;20.50;;;;;;;;;;5097502;28;20204;-81
2021/04/27 02:36:38;;;;;;;21.50;20.38;;;;;;;;;;5097418;28;20281;-81
2021/04/27 02:39:06;;;;;;;21.55;20.35;;;;;;;;;;5097447;28;20189;-80
2021/04/27 02:41:33;;;;;;;21.45;20.05;;;;;;;;;;5097580;28;20184;-81
2021/04/27 02:44:01;;;;;;;21.63;20.25;;;;;;;;;;5097243;28;20200;-81
2021/04/27 02:46:28;;;;;;;21.63;20.27;;;;;;;;;;5097272;28;20199;-81
2021/04/27 02:48:55;;;;;;;22.17;20.67;;;;;;;;;;5097289;28;20213;-81
2021/04/27 02:51:22;;;;;;;21.27;19.98;;;;;;;;;;5096993;28;20193;-81
2021/04/27 02:53:50;;;;;;;21.75;20.55;;;;;;;;;;5097162;28;20216;-81
2021/04/27 02:56:16;;;;;;;21.40;20.15;;;;;;;;;;5097000;28;20264;-80
2021/04/27 02:58:43;;;;;;;21.50;20.40;;;;;;;;;;5097279;28;20263;-80
2021/04/27 03:01:10;;;;;;;21.50;20.30;;;;;;;;;;5097031;28;20424;-80
2021/04/27 03:03:37;;;;;;;21.55;20.35;;;;;;;;;;5097179;28;20201;-81
2021/04/27 03:06:04;;;;;;;21.85;20.58;;;;;;;;;;5095901;28;20198;-81
2021/04/27 03:08:31;;;;;;;21.00;19.80;;;;;;;;;;5096864;28;20291;-81
2021/04/27 03:10:59;;;;;;;21.98;20.77;;;;;;;;;;5096972;28;20220;-81
2021/04/27 03:13:26;;;;;;;21.30;20.20;;;;;;;;;;5097053;28;20526;-81
2021/04/27 03:15:53;;;;;;;21.67;20.38;;;;;;;;;;5096587;28;20193;-82
2021/04/27 03:18:20;;;;;;;22.90;21.65;;;;;;;;;;5096612;28;20250;-81
2021/04/27 03:20:47;;;;;;;22.60;21.10;;;;;;;;;;5096874;28;20630;-81
2021/04/27 03:23:14;;;;;;;22.50;21.00;;;;;;;;;;5097191;28;20200;-81
2021/04/27 03:25:42;;;;;;;22.05;20.75;;;;;;;;;;5095579;28;20185;-81
2021/04/27 03:28:10;;;;;;;21.48;20.27;;;;;;;;;;5096683;28;20215;-80
2021/04/27 03:30:37;;;;;;;22.08;20.77;;;;;;;;;;5096349;28;20224;-80
2021/04/27 03:33:04;;;;;;;22.17;20.67;;;;;;;;;;5096460;28;20205;-80
2021/04/27 03:35:31;;;;;;;21.70;20.40;;;;;;;;;;5096656;28;20192;-80
2021/04/27 03:37:58;;;;;;;21.70;20.55;;;;;;;;;;5096596;28;20196;-81
2021/04/27 03:40:25;;;;;;;21.60;20.30;;;;;;;;;;5096257;28;20192;-81
2021/04/27 03:42:52;;;;;;;22.65;21.20;;;;;;;;;;5095988;28;20189;-80
2021/04/27 03:45:21;;;;;;;22.15;20.77;;;;;;;;;;5096113;28;20188;-81
2021/04/27 03:47:49;;;;;;;21.85;20.55;;;;;;;;;;5096364;28;20587;-80
2021/04/27 03:50:16;;;;;;;22.83;21.52;;;;;;;;;;5096247;28;20232;-81
2021/04/27 03:52:43;;;;;;;21.40;20.20;;;;;;;;;;5095894;28;20199;-80
2021/04/27 03:55:10;;;;;;;21.90;20.50;;;;;;;;;;5096110;28;20252;-80
2021/04/27 03:57:38;;;;;;;21.40;20.10;;;;;;;;;;5095807;28;20200;-82
2021/04/27 04:00:05;;;;;;;21.13;19.98;;;;;;;;;;5096182;28;20200;-80
2021/04/27 04:02:33;;;;;;;21.23;20.05;;;;;;;;;;5096116;28;20627;-81
2021/04/27 04:05:00;;;;;;;21.13;20.00;;;;;;;;;;5095639;28;20211;-80
2021/04/27 04:07:27;;;;;;;20.50;19.35;;;;;;;;;;5095788;28;20222;-81
2021/04/27 04:09:53;;;;;;;21.33;20.05;;;;;;;;;;5095850;28;20216;-81
2021/04/27 04:12:20;;;;;;;21.23;20.13;;;;;;;;;;5095667;28;20209;-82
2021/04/27 04:14:47;;;;;;;21.92;20.50;;;;;;;;;;5095950;28;20251;-82
2021/04/27 04:17:14;;;;;;;21.17;19.80;;;;;;;;;;5096009;28;20205;-81
2021/04/27 04:19:42;;;;;;;21.30;20.10;;;;;;;;;;5095608;28;20200;-78
2021/04/27 04:22:09;;;;;;;21.50;20.30;;;;;;;;;;5095495;28;20196;-79
2021/04/27 04:24:36;;;;;;;21.30;20.10;;;;;;;;;;5095178;28;20233;-79
2021/04/27 04:27:03;;;;;;;20.67;19.50;;;;;;;;;;5095404;28;20186;-82
2021/04/27 04:29:30;;;;;;;21.55;20.20;;;;;;;;;;5095622;28;20224;-82
2021/04/27 04:31:56;;;;;;;21.50;20.30;;;;;;;;;;5095156;28;20193;-79
2021/04/27 04:34:23;;;;;;;21.77;20.33;;;;;;;;;;5094891;28;20633;-79
2021/04/27 04:36:51;;;;;;;21.95;20.50;;;;;;;;;;5095037;28;20597;-79
2021/04/27 04:39:18;;;;;;;21.42;20.13;;;;;;;;;;5094616;28;20197;-79
2021/04/27 04:41:45;;;;;;;22.02;20.73;;;;;;;;;;5094759;28;20188;-79
2021/04/27 04:44:12;;;;;;;21.55;20.20;;;;;;;;;;5095102;28;20546;-78
2021/04/27 04:46:39;;;;;;;21.38;20.08;;;;;;;;;;5094386;28;20255;-79
2021/04/27 04:49:06;;;;;;;21.25;19.95;;;;;;;;;;5094569;28;20204;-79
2021/04/27 04:51:33;;;;;;;21.65;20.25;;;;;;;;;;5094680;28;20192;-79
2021/04/27 04:54:00;;;;;;;21.40;20.20;;;;;;;;;;5094764;28;20245;-79
2021/04/27 04:56:27;;;;;;;21.42;20.02;;;;;;;;;;5094758;28;20447;-79
2021/04/27 04:58:54;;;;;;;20.83;19.60;;;;;;;;;;5094482;28;20193;-79
2021/04/27 05:01:21;;;;;;;21.15;19.95;;;;;;;;;;5094630;28;20249;-79
2021/04/27 05:03:48;;;;;;;21.00;19.80;;;;;;;;;;5094658;28;20190;-79
2021/04/27 05:06:16;;;;;;;20.77;19.58;;;;;;;;;;5094754;28;20190;-85
2021/04/27 05:08:45;;;;;;;27.05;23.13;;;;;;;;;;5093471;28;20194;-79
2021/04/27 05:11:13;;;;;;;20.40;19.20;;;;;;;;;;5093900;28;20212;-84
2021/04/27 05:13:40;;;;;;;21.90;20.70;;;;;;;;;;5094146;28;20197;-78
2021/04/27 05:16:09;;;;;;;21.75;20.30;;;;;;;;;;5094332;28;20214;-79
2021/04/27 05:18:37;;;;;;;22.02;20.67;;;;;;;;;;5094134;28;20189;-76
2021/04/27 05:21:04;;;;;;;21.48;20.08;;;;;;;;;;5093133;28;20189;-79
2021/04/27 05:23:30;;;;;;;21.33;20.13;;;;;;;;;;5093873;28;20289;-77
2021/04/27 05:25:58;;;;;;;21.40;20.20;;;;;;;;;;5094540;28;20208;-84
2021/04/27 05:28:25;;;;;;;22.02;20.58;;;;;;;;;;5094090;28;20322;-78
2021/04/27 05:30:54;;;;;;;21.55;20.27;;;;;;;;;;5093785;28;20211;-78
2021/04/27 05:33:21;;;;;;;22.30;20.70;;;;;;;;;;5093578;28;20200;-79
2021/04/27 05:35:48;;;;;;;21.65;20.45;;;;;;;;;;5094143;28;20197;-79
2021/04/27 05:38:15;;;;;;;22.52;21.13;;;;;;;;;;5092754;28;20206;-79
2021/04/27 05:40:41;;;;;;;22.17;20.73;;;;;;;;;;5093685;28;20654;-79
2021/04/27 05:43:08;;;;;;;22.73;21.17;;;;;;;;;;5093807;28;20642;-83
2021/04/27 05:45:37;;;;;;;24.85;22.77;;;;;;;;;;5096893;28;20247;-80
2021/04/27 05:48:04;;;;;;;23.10;21.17;;;;;;;;;;5095991;28;20247;-81
2021/04/27 05:50:31;;;;;;;22.00;20.60;;;;;;;;;;5094866;28;20251;-79
2021/04/27 05:52:58;;;;;;;22.80;21.30;;;;;;;;;;5095298;28;20190;-80
2021/04/27 05:55:25;;;;;;;23.13;21.20;;;;;;;;;;5095853;28;20447;-81
2021/04/27 05:57:52;;;;;;;22.58;20.90;;;;;;;;;;5094107;28;20435;-80
2021/04/27 06:00:20;;;;;;;21.57;20.27;;;;;;;;;;5094522;28;20251;-80
2021/04/27 06:02:48;;;;;;;22.13;20.60;;;;;;;;;;5093974;28;20468;-81
2021/04/27 06:05:15;;;;;;;22.35;20.70;;;;;;;;;;5093789;28;20527;-81
2021/04/27 06:07:42;;;;;;;21.35;20.15;;;;;;;;;;5093660;28;20189;-80
2021/04/27 06:10:11;;;;;;;22.23;20.73;;;;;;;;;;5094486;28;20233;-81
2021/04/27 06:12:38;;;;;;;21.63;20.38;;;;;;;;;;5093995;28;20201;-80
2021/04/27 06:15:05;;;;;;;21.80;20.60;;;;;;;;;;5094201;28;20190;-84
2021/04/27 06:17:35;;;;;;;20.90;19.70;;;;;;;;;;5096231;28;20190;-84
2021/04/27 06:20:03;;;;;;;22.15;20.85;;;;;;;;;;5093927;28;20444;-81
2021/04/27 06:22:31;;;;;;;21.90;20.67;;;;;;;;;;5095253;28;20191;-81
2021/04/27 06:24:58;;;;;;;21.90;20.50;;;;;;;;;;5094764;28;20592;-78
2021/04/27 06:27:28;;;;;;;21.70;20.40;;;;;;;;;;5093763;28;20236;-79
2021/04/27 06:29:55;;;;;;;21.70;20.33;;;;;;;;;;5093869;28;20472;-78
2021/04/27 06:32:23;;;;;;;21.90;20.30;;;;;;;;;;5094135;28;20572;-78
2021/04/27 06:34:49;;;;;;;21.40;20.20;;;;;;;;;;5094196;28;20194;-78
2021/04/27 06:37:17;;;;;;;21.10;19.70;;;;;;;;;;5094116;28;20451;-80
2021/04/27 06:39:44;;;;;;;21.60;20.27;;;;;;;;;;5094085;28;20440;-77
2021/04/27 06:42:11;;;;;;;21.83;20.45;;;;;;;;;;5094191;28;20195;-80
2021/04/27 06:44:38;;;;;;;21.80;20.70;;;;;;;;;;5095222;28;20255;-79
2021/04/27 06:47:06;;;;;;;20.97;19.77;;;;;;;;;;5095466;28;20755;-80
2021/04/27 06:49:33;;;;;;;21.47;20.07;;;;;;;;;;5093929;28;20450;-80
2021/04/27 06:52:00;;;;;;;20.80;19.60;;;;;;;;;;5094154;28;20437;-82
2021/04/27 06:54:28;;;;;;;21.80;20.40;;;;;;;;;;5093885;28;20232;-79
2021/04/27 06:56:55;;;;;;;20.87;19.70;;;;;;;;;;5092514;28;20456;-82
2021/04/27 06:59:24;;;;;;;22.45;21.05;;;;;;;;;;5093845;28;20418;-82
2021/04/27 07:01:51;;;;;;;21.77;20.58;;;;;;;;;;5095351;28;20190;-83
2021/04/27 07:04:18;;;;;;;21.50;20.30;;;;;;;;;;5097284;28;20191;-83
2021/04/27 07:06:45;;;;;;;22.30;20.83;;;;;;;;;;5097125;28;20440;-81
2021/04/27 07:09:12;;;;;;;22.10;20.60;;;;;;;;;;5097451;28;20486;-81
2021/04/27 07:11:40;;;;;;;21.90;20.50;;;;;;;;;;5097018;28;20872;-83
2021/04/27 07:14:07;;;;;;;21.57;20.37;;;;;;;;;;5096818;28;20444;-81
2021/04/27 07:16:34;;;;;;;21.83;20.63;;;;;;;;;;5097371;28;20445;-80
2021/04/27 07:19:01;;;;;;;22.42;21.10;;;;;;;;;;5097879;28;20447;-79
2021/04/27 07:21:28;;;;;;;22.53;21.23;;;;;;;;;;5097142;28;20194;-78
2021/04/27 07:23:57;;;;;;;21.40;20.10;;;;;;;;;;5096153;28;20549;-76
2021/04/27 07:26:25;;;;;;;21.57;20.17;;;;;;;;;;5096320;28;20952;-79
2021/04/27 07:28:53;;;;;;;21.23;20.13;;;;;;;;;;5096781;28;20445;-83
2021/04/27 07:31:20;;;;;;;21.77;20.57;;;;;;;;;;5096357;28;20466;-77
2021/04/27 07:33:47;;;;;;;21.60;20.40;;;;;;;;;;5096816;28;20467;-90
2021/04/27 07:36:14;;;;;;;21.60;20.20;;;;;;;;;;5096757;28;20425;-78
2021/04/27 07:38:41;;;;;;;23.80;22.20;;;;;;;;;;5096506;28;20511;-78
2021/04/27 07:41:08;;;;;;;21.73;20.33;;;;;;;;;;5095937;28;20964;-86
2021/04/27 07:43:35;;;;;;;21.87;20.70;;;;;;;;;;5097512;28;20433;-81
2021/04/27 07:46:03;;;;;;;22.20;20.90;;;;;;;;;;5096746;28;20437;-79
2021/04/27 07:48:30;;;;;;;22.00;20.80;;;;;;;;;;5095454;28;20433;-79
2021/04/27 07:50:57;;;;;;;22.20;20.73;;;;;;;;;;5095992;28;20561;-81
2021/04/27 07:53:24;;;;;;;21.37;20.17;;;;;;;;;;5095442;28;20444;-81
2021/04/27 07:55:51;;;;;;;21.93;20.63;;;;;;;;;;5095747;28;20513;-81
2021/04/27 07:58:18;;;;;;;22.80;21.30;;;;;;;;;;5095909;28;20791;-81
2021/04/27 08:00:45;;;;;;;21.20;20.10;;;;;;;;;;5095469;28;20531;-80
2021/04/27 08:03:13;;;;;;;22.13;20.70;;;;;;;;;;5095669;28;20426;-81
2021/04/27 08:05:40;;;;;;;22.47;20.97;;;;;;;;;;5095463;28;20444;-81
2021/04/27 08:08:07;;;;;;;21.90;20.50;;;;;;;;;;5096387;28;20451;-81
2021/04/27 08:10:34;;;;;;;23.23;21.83;;;;;;;;;;5095630;28;20503;-82
2021/04/27 08:13:01;;;;;;;22.60;21.30;;;;;;;;;;5095075;28;20463;-86
2021/04/27 08:15:29;;;;;;;22.23;20.93;;;;;;;;;;5096056;28;20927;-84
2021/04/27 08:17:59;;;;;;;22.50;21.30;;;;;;;;;;5095943;28;20436;-82
2021/04/27 08:20:27;;;;;;;22.70;21.00;;;;;;;;;;5095882;28;20441;-81
2021/04/27 08:22:54;;;;;;;21.83;20.63;;;;;;;;;;5095294;28;20437;-80
2021/04/27 08:25:21;;;;;;;22.57;21.27;;;;;;;;;;5094990;28;20476;-79
2021/04/27 08:27:48;;;;;;;21.70;20.40;;;;;;;;;;5095124;28;20443;-79
2021/04/27 08:30:17;;;;;;;22.77;21.30;;;;;;;;;;5095481;28;20458;-80
2021/04/27 08:32:44;;;;;;;23.17;21.87;;;;;;;;;;5094926;28;20448;-78
2021/04/27 08:35:12;;;;;;;22.13;20.80;;;;;;;;;;5093986;28;20447;-78
2021/04/27 08:37:40;;;;;;;23.63;22.13;;;;;;;;;;5093850;28;20415;-79
2021/04/27 08:40:09;;;;;;;22.17;20.87;;;;;;;;;;5095007;28;20429;-81
2021/04/27 08:42:36;;;;;;;22.37;21.07;;;;;;;;;;5095084;28;20790;-79
2021/04/27 08:45:04;;;;;;;22.00;20.70;;;;;;;;;;5095068;28;20860;-80
2021/04/27 08:47:31;;;;;;;24.50;22.97;;;;;;;;;;5094700;28;20422;-79
2021/04/27 08:49:58;;;;;;;22.50;21.07;;;;;;;;;;5094513;28;20988;-79
2021/04/27 08:52:25;;;;;;;22.13;20.83;;;;;;;;;;5094525;28;20472;-83
2021/04/27 08:54:53;;;;;;;22.10;20.80;;;;;;;;;;5093152;28;20468;-77
2021/04/27 08:57:20;;;;;;;23.63;21.60;;;;;;;;;;5094731;28;20412;-78
2021/04/27 08:59:47;;;;;;;22.40;21.10;;;;;;;;;;5094327;28;20443;-77
2021/04/27 09:02:14;;;;;;;22.43;21.13;;;;;;;;;;5094498;28;20448;-79
2021/04/27 09:04:42;;;;;;;23.87;22.30;;;;;;;;;;5094925;28;20436;-77
2021/04/27 09:07:11;;;;;;;23.67;22.03;;;;;;;;;;5094224;28;20437;-77
2021/04/27 09:09:38;;;;;;;22.90;21.40;;;;;;;;;;5094383;28;20433;-77
2021/04/27 09:12:07;;;;;;;22.57;21.30;;;;;;;;;;5093969;28;20419;-77
2021/04/27 09:14:35;;;;;;;22.50;21.27;;;;;;;;;;5094107;28;20493;-76
2021/04/27 09:17:03;;;;;;;23.47;21.97;;;;;;;;;;5094009;28;20528;-78
2021/04/27 09:19:35;;;;;;;23.10;21.73;;;;;;;;;;5094378;28;20800;-77
2021/04/27 09:22:03;;;;;;;23.23;21.70;;;;;;;;;;5091513;28;20452;-78
2021/04/27 09:24:34;;;;;;;22.50;21.20;;;;;;;;;;5092910;28;20477;-77
2021/04/27 09:27:01;;;;;;;22.27;20.90;;;;;;;;;;5095870;28;20437;-80
2021/04/27 09:29:34;;;;;;;22.60;21.20;;;;;;;;;;5095017;28;20441;-81
2021/04/27 09:32:02;;;;;;;22.90;21.40;;;;;;;;;;5095176;28;20452;-77
2021/04/27 09:34:29;;;;;;;21.33;20.13;;;;;;;;;;5094697;28;20447;-79
2021/04/27 09:36:57;;;;;;;21.83;20.53;;;;;;;;;;5093588;28;20441;-76
2021/04/27 09:39:32;;;;;;;21.60;20.30;;;;;;;;;;5094518;28;20437;-79
2021/04/27 09:42:00;;;;;;;22.10;20.80;;;;;;;;;;5094801;28;20444;-79
2021/04/27 09:44:30;;;;;;;22.57;21.27;;;;;;;;;;5095314;28;20843;-77
2021/04/27 09:47:16;;;;;;;22.77;21.43;;;;;;;;;;5093498;28;20441;-77
2021/04/27 09:49:51;;;;;;;21.90;20.60;;;;;;;;;;5093962;28;20921;-78
2021/04/27 09:52:18;;;;;;;21.67;20.47;;;;;;;;;;5093779;28;20428;-80
2021/04/27 09:54:58;;;;;;;22.23;20.77;;;;;;;;;;5093447;28;20468;-77
2021/04/27 09:57:26;;;;;;;22.53;21.13;;;;;;;;;;5093524;28;20918;-78
2021/04/27 09:59:52;;;;;;;22.97;21.60;;;;;;;;;;5093891;28;20437;-77
2021/04/27 10:02:22;;;;;;;22.53;21.17;;;;;;;;;;5092686;28;20770;-77
2021/04/27 10:04:50;;;;;;;24.00;22.50;;;;;;;;;;5093892;28;20425;-77
2021/04/27 10:07:17;;;;;;;23.53;22.20;;;;;;;;;;5093796;28;20444;-78
2021/04/27 10:09:44;;;;;;;23.80;22.40;;;;;;;;;;5093617;28;20436;-76
2021/04/27 10:12:12;;;;;;;23.50;22.20;;;;;;;;;;5093376;28;20475;-76
2021/04/27 10:14:39;;;;;;;23.00;21.40;;;;;;;;;;5093372;28;20440;-76
2021/04/27 10:17:05;;;;;;;22.97;21.60;;;;;;;;;;5093100;28;20445;-75
2021/04/27 10:19:34;;;;;;;23.37;21.87;;;;;;;;;;5093596;28;20488;-77
2021/04/27 10:22:01;;;;;;;23.53;22.23;;;;;;;;;;5092241;28;20447;-79
2021/04/27 10:24:28;;;;;;;23.60;22.37;;;;;;;;;;5093295;28;20476;-78
2021/04/27 10:26:55;;;;;;;23.00;21.63;;;;;;;;;;5093601;28;20437;-79
2021/04/27 10:29:23;;;;;;;24.27;22.67;;;;;;;;;;5093603;28;20425;-78
2021/04/27 10:32:10;;;;;;;22.80;21.30;;;;;;;;;;5093349;28;20472;-78
2021/04/27 10:34:38;;;;;;;23.67;22.37;;;;;;;;;;5093075;28;20473;-80
2021/04/27 10:37:07;;;;;;;25.37;23.47;;;;;;;;;;5097328;28;20452;-77
2021/04/27 10:39:39;;;;;;;22.90;21.40;;;;;;;;;;5095960;28;20468;-80
2021/04/27 10:42:17;;;;;;;23.10;21.80;;;;;;;;;;5097265;28;20447;-80
2021/04/27 10:44:53;;;;;;;24.10;22.43;;;;;;;;;;5096997;28;20440;-79
2021/04/27 10:47:21;;;;;;;21.83;20.53;;;;;;;;;;5097242;28;20443;-78
2021/04/27 10:49:49;;;;;;;22.70;20.90;;;;;;;;;;5096807;28;20440;-78
2021/04/27 10:52:32;;;;;;;22.60;21.20;;;;;;;;;;5096690;28;20796;-77
2021/04/27 10:55:18;;;;;;;22.10;20.67;;;;;;;;;;5096962;28;20572;-79
2021/04/27 10:57:45;;;;;;;21.83;20.53;;;;;;;;;;5097051;28;20433;-77
2021/04/27 11:00:32;;;;;;;23.27;21.97;;;;;;;;;;5096651;28;20869;-77
2021/04/27 11:03:11;;;;;;;23.03;21.70;;;;;;;;;;5096632;28;20442;-77
2021/04/27 11:05:50;;;;;;;23.33;22.03;;;;;;;;;;5096580;28;20906;-78
2021/04/27 11:08:17;;;;;;;25.23;23.73;;;;;;;;;;5097019;28;20421;-78
2021/04/27 11:10:45;;;;;;;22.67;21.47;;;;;;;;;;5096505;27;20487;-79
2021/04/27 11:13:13;;;;;;;23.53;21.90;;;;;;;;;;5096625;28;20449;-80
2021/04/27 11:15:41;;;;;;;23.80;22.50;;;;;;;;;;5096721;28;20444;-79
2021/04/27 11:18:10;;;;;;;23.23;21.90;;;;;;;;;;5095228;28;20444;-80
2021/04/27 11:20:52;;;;;;;22.67;21.33;;;;;;;;;;5096325;28;20440;-80
2021/04/27 11:23:53;;;;;;;22.27;20.97;;;;;;;;;;5096040;28;20954;-79
2021/04/27 11:26:49;;;;;;;23.67;22.30;;;;;;;;;;5034165;28;20448;-80
2021/04/27 11:29:20;;;;;;;22.90;21.50;;;;;;;;;;5017475;28;20467;-79
2021/04/27 11:32:06;;;;;;;23.47;22.07;;;;;;;;;;5033513;28;20496;-79
2021/04/27 11:34:33;;;;;;;23.20;21.90;;;;;;;;;;5033841;28;20812;-79
2021/04/27 11:37:01;;;;;;;22.53;21.23;;;;;;;;;;5033832;28;20444;-79
2021/04/27 11:39:30;;;;;;;25.80;24.10;;;;;;;;;;5033476;28;20451;-79
2021/04/27 11:41:58;;;;;;;23.93;22.33;;;;;;;;;;5033700;28;20439;-80
2021/04/27 11:44:31;;;;;;;24.27;22.50;;;;;;;;;;5017467;28;20443;-81
2021/04/27 11:47:00;;;;;;;23.20;21.80;;;;;;;;;;5032925;28;20463;-81
2021/04/27 11:49:45;;;;;;;23.70;22.30;;;;;;;;;;5033561;28;20822;-80
2021/04/27 11:52:15;;;;;;;24.00;22.70;;;;;;;;;;5033630;28;20435;-80
2021/04/27 11:54:45;;;;;;;24.43;23.03;;;;;;;;;;5033741;28;20471;-81
2021/04/27 11:57:16;;;;;;;27.60;25.63;;;;;;;;;;5066167;28;20491;-80
2021/04/27 11:59:43;;;;;;;23.70;22.20;;;;;;;;;;5096088;28;20843;-80
2021/04/27 12:02:13;;;;;;;25.37;23.80;;;;;;;;;;5095531;28;20914;-80
2021/04/27 12:04:41;;;;;;;25.60;23.93;;;;;;;;;;5095685;28;20934;-80
2021/04/27 12:07:08;;;;;;;25.30;23.40;;;;;;;;;;5095444;28;20439;-80
2021/04/27 12:09:43;;;;;;;24.67;23.00;;;;;;;;;;5095111;28;20411;-80
2021/04/27 12:12:11;;;;;;;24.30;22.30;;;;;;;;;;5095243;28;20457;-79
2021/04/27 12:14:38;;;;;;;24.27;22.77;;;;;;;;;;5095592;28;20451;-80
2021/04/27 12:17:05;;;;;;;23.67;22.17;;;;;;;;;;5094563;28;20440;-80
2021/04/27 12:19:33;;;;;;;26.40;24.70;;;;;;;;;;5095197;28;20407;-81
2021/04/27 12:22:02;;;;;;;23.50;22.00;;;;;;;;;;5095185;28;20469;-82
2021/04/27 12:24:30;;;;;;;24.53;23.13;;;;;;;;;;5094881;28;20473;-81
2021/04/27 12:27:00;;;;;;;24.63;23.03;;;;;;;;;;5095013;28;20443;-78
2021/04/27 12:29:28;;;;;;;25.03;23.20;;;;;;;;;;5095040;28;20922;-77
2021/04/27 12:31:56;;;;;;;23.53;22.17;;;;;;;;;;5095045;28;20489;-78
2021/04/27 12:34:22;;;;;;;23.43;22.10;;;;;;;;;;5094885;28;20437;-77
2021/04/27 12:36:50;;;;;;;23.40;21.80;;;;;;;;;;5095191;28;20433;-77
2021/04/27 12:39:28;;;;;;;23.80;22.33;;;;;;;;;;5093790;28;20411;-77
2021/04/27 12:41:57;;;;;;;25.10;23.50;;;;;;;;;;5094805;28;20820;-80
2021/04/27 12:44:33;;;;;;;25.27;23.50;;;;;;;;;;5095028;28;20417;-79
2021/04/27 12:47:00;;;;;;;24.57;23.07;;;;;;;;;;5094894;28;20455;-79
2021/04/27 12:49:28;;;;;;;24.53;22.83;;;;;;;;;;5094445;28;20985;-80
2021/04/27 12:51:58;;;;;;;24.87;23.27;;;;;;;;;;5094689;28;20455;-80
2021/04/27 12:54:26;;;;;;;24.13;22.63;;;;;;;;;;5094269;28;20443;-78
2021/04/27 12:57:13;;;;;;;24.47;22.90;;;;;;;;;;5094427;28;20483;-78
2021/04/27 12:59:42;;;;;;;23.83;22.43;;;;;;;;;;5094425;28;20441;-78
2021/04/27 13:02:10;;;;;;;23.67;22.27;;;;;;;;;;5094234;28;20441;-80
2021/04/27 13:04:41;;;;;;;24.30;22.90;;;;;;;;;;5093095;28;20437;-81
2021/04/27 13:07:08;;;;;;;24.53;23.03;;;;;;;;;;5093048;28;20407;-79
2021/04/27 13:09:36;;;;;;;23.63;22.30;;;;;;;;;;5094287;28;20459;-79
2021/04/27 13:12:04;;;;;;;23.00;21.50;;;;;;;;;;5094164;28;21042;-79
2021/04/27 13:14:32;;;;;;;24.10;22.70;;;;;;;;;;5093105;28;20969;-79
2021/04/27 13:17:01;;;;;;;23.93;22.63;;;;;;;;;;5094467;28;20423;-78
2021/04/27 13:19:27;;;;;;;28.03;25.93;;;;;;;;;;5094444;28;20905;-80
2021/04/27 13:22:07;;;;;;;24.80;23.20;;;;;;;;;;5094298;28;20449;-79
2021/04/27 13:24:37;;;;;;;25.07;23.10;;;;;;;;;;5094002;28;20472;-79
2021/04/27 13:27:04;;;;;;;23.10;21.80;;;;;;;;;;5093033;28;20425;-79
2021/04/27 13:29:34;;;;;;;23.60;22.30;;;;;;;;;;5092864;28;20485;-80
2021/04/27 13:32:21;;;;;;;25.57;23.50;;;;;;;;;;5093701;28;20978;-79
2021/04/27 13:34:49;;;;;;;24.30;22.90;;;;;;;;;;5094073;28;20424;-80
2021/04/27 13:37:16;;;;;;;23.90;22.40;;;;;;;;;;5093558;28;20448;-79
2021/04/27 13:39:43;;;;;;;23.63;22.27;;;;;;;;;;5094126;28;20437;-80
2021/04/27 13:42:10;;;;;;;24.20;22.70;;;;;;;;;;5093845;28;20426;-79
2021/04/27 13:44:37;;;;;;;24.57;22.73;;;;;;;;;;5094192;28;20845;-81
2021/04/27 13:47:05;;;;;;;24.63;23.13;;;;;;;;;;5092636;28;20801;-81
2021/04/27 13:49:33;;;;;;;25.03;23.33;;;;;;;;;;5094056;28;20424;-81
2021/04/27 13:52:00;;;;;;;24.23;22.73;;;;;;;;;;5092398;28;20492;-82
2021/04/27 13:54:27;;;;;;;23.80;22.30;;;;;;;;;;5093893;28;20596;-81
2021/04/27 13:56:54;;;;;;;24.60;23.10;;;;;;;;;;5093645;28;20417;-81
2021/04/27 13:59:21;;;;;;;24.63;23.07;;;;;;;;;;5094149;28;20451;-81
2021/04/27 14:01:48;;;;;;;25.30;23.70;;;;;;;;;;5093275;28;20404;-80
2021/04/27 14:04:15;;;;;;;39.70;36.30;;;;;;;;;;5093830;28;20441;-81
2021/04/27 14:06:43;;;;;;;26.20;24.70;;;;;;;;;;5093566;28;20430;-81
2021/04/27 14:09:10;;;;;;;25.60;23.90;;;;;;;;;;5093609;28;20415;-81
2021/04/27 14:11:37;;;;;;;24.33;22.83;;;;;;;;;;5096885;28;20493;-80
2021/04/27 14:14:04;;;;;;;24.80;23.27;;;;;;;;;;5096582;28;20431;-81
2021/04/27 14:16:32;;;;;;;24.73;23.33;;;;;;;;;;5096506;28;20899;-81
2021/04/27 14:18:59;;;;;;;24.93;23.47;;;;;;;;;;5097954;28;20467;-80
2021/04/27 14:21:26;;;;;;;24.70;23.40;;;;;;;;;;5097803;28;20429;-80
2021/04/27 14:23:54;;;;;;;24.40;23.00;;;;;;;;;;5097330;28;21000;-80